Rohwer, Arkansas
Current Conditions -  °F | °C
As of 8:53 PM on Sunday 21 Dec 2014 (Local Time) from KGLH Reporting Station
Clear Clear  
Wind Chill: 43°   Ceiling: Unl
Heat Index: 46°   Visibility: 10mi
Dew Point: 40°   Wind: 6mph
Humidity: 79%   Direction: 110°ESE
Pressure: 29.95"   Gusts: NA
Location:  33.7652°N, 91.2745°W
Report Text: KGLH 220253Z AUTO 11005KT 10SM CLR 08/04 A2995 RMK AO2 SLP149 T00780044 55012
Loading
Personal Weather Stations






























Interactive Weather Map New forecast layout! Learn more

10-Day Weather Forecast

Advertisements
Track Severe Weather on mobile